challenge Jean-Pierre Guerit

Les Jogging & Trail De L'Hermeton - Romedenne (29.00 km)

samedi 11 juillet 2020

Le classement original se trouve sur : http://www.challenge-guerit.be/
 
CHALLENGE JP GUERIT
LES JOGGING & TRAIL DE L'HERMETON - ROMEDENNE
DISTANCE 29.00 km
samedi 11 juillet 2020
 
place
finish
dos NOM Equipe Catég. Place
catégorie
temps temps/km Vitesse
1 5 PAHOS ANDREAS SPORTEX SEN H 1 02:13:20 04:36 13.05
2 17 FERNANDEZ SIMON   SEN H 2 02:14:35 04:38 12.93
3 8 MAHIA SÉBASTIEN   SEN H 3 02:16:28 04:42 12.75
4 33 BERTI ROMAIN BRASSEUR SEN H 4 02:22:09 04:54 12.24
5 2 COPPIN STEVE ESM SEN H 5 02:23:56 04:58 12.09
6 25 ETIENNE FABRICE RC NAMUR V2 1 02:24:17 04:59 12.06
7 14 FRANCOIS BERTRAND OUFTEAM SEN H 6 02:27:44 05:06 11.78
8 3 ROUVROIS SIL   SEN H 7 02:30:58 05:12 11.53
9 42 FABRY KIKIANO ARCH SEN H 8 02:34:03 05:19 11.30
10 24 KUYSTERMANS TOM AC SODIBRUG V1 1 02:34:41 05:20 11.25
11 106 RENARD YVES CTA V2 2 02:35:00 05:21 11.23
12 7 MARCHAND STEPHANE   V1 2 02:35:37 05:22 11.18
13 70 LAOUREUX DENIS   V1 3 02:35:40 05:22 11.18
14 43 DEBORTOLI NICOLAS TRAIL EAU BLANCHE SEN H 9 02:36:02 05:23 11.15
15 37 CHARLIER ALAIN SMAC CAPTRAIL V2 3 02:38:07 05:27 11.00
16 4 FRENNET GRÉGORY   SEN H 10 02:38:46 05:28 10.96
17 44 VANDERHEYDEN NATHANAËL   SEN H 11 02:39:40 05:30 10.90
18 66 MASSON FRANÇOIS TRAILEURS DÉJANTÉS V2 4 02:40:48 05:33 10.82
19 41 MOYERSOEN BERNARD RFCL ROAD RUNNERS V2 5 02:41:25 05:34 10.78
20 169 HAEGHENS ALAIN-BRICE TRICOTEAM SEN H 12 02:42:56 05:37 10.68
21 22 DEPICKERE BRAM AC SODIBRUG SEN H 13 02:44:10 05:40 10.60
22 39 SLEGERS BRUNO UTT SEN H 14 02:44:53 05:41 10.55
23 38 SCHOUMACKERS BENOÎT   V1 4 02:45:10 05:42 10.53
24 36 DRYGALSKI TOM ESM SEN H 15 02:45:11 05:42 10.53
25 50 HAVRENNE JONATHAN AMARUQ RACING TEAM SEN H 16 02:45:48 05:43 10.49
26 28 DULON OLIVIER   V2 6 02:46:28 05:44 10.45
27 34 HAMELINCK WOUTER   SEN H 17 02:46:55 05:45 10.42
28 29 DAVID PAULUS   V1 5 02:47:41 05:47 10.38
29 60 BADOT BENOIT RUN EXPERT TEAM SEN H 18 02:48:18 05:48 10.34
30 13 FALIZE EMILE ESM V2 7 02:49:01 05:50 10.29
31 84 VERLÉ JONAS   SEN H 19 02:49:34 05:51 10.26
32 30 DE WIN VINCENT LA MEUTE MOLIGNARDE SEN H 20 02:51:13 05:54 10.16
33 18 BENOIT TRONÇON TRAILERS DES FAGNES SEN H 21 02:53:55 06:00 10.00
34 46 HOSSELET KEVIN SINGLE TRACK TEAM TRAIL SEN H 22 02:54:29 06:01 9.97
35 81 GRAUMANN FREDERIC   V1 6 02:55:14 06:03 9.93
36 40 GIVRON REGIS LEGENDETRAIL SEN H 23 02:56:09 06:04 9.88
37 9 FOSSION CHARLTON CHICKEN RUN SEN H 24 02:56:26 06:05 9.86
38 87 DEDOCQ SÉBASTIEN   SEN H 25 02:56:28 06:05 9.86
39 57 GILLET MICKAËL COMMUNAUTÉ SPORTEX SEN H 26 02:56:31 06:05 9.86
40 86 HENNEBELLE NICOLAS JEANNETTE SPORTING CLUB V1 7 02:57:12 06:07 9.82
41 21 DE SMIJTERE JOHAN   V1 8 02:58:20 06:09 9.76
42 10 ZARULLI CHRIS UAC CHATELINEAU SEN H 27 02:59:00 06:10 9.72
43 56 LALOY PHILIPPE ACTE V1 9 02:59:04 06:10 9.72
44 6 VANESCOTE INGRID JCHSH A2 1 02:59:17 06:11 9.71
45 26 BRULIAU JÉRÔME TEAM PHACO SEN H 28 02:59:18 06:11 9.70
46 67 DAMBROISE YVES TRAILEURS DÉJANTÉS V2 8 03:00:46 06:14 9.63
47 65 TASIAUX ADRIEN   SEN H 29 03:00:58 06:14 9.62
48 31 BEUGNIES DAVID   SEN H 30 03:01:21 06:15 9.59
49 45 VAN HOECK YVES JOGGINGCLUB MOERBEKE V1 10 03:01:49 06:16 9.57
50 16 MARCHI STEPHANE SERIAL TRAILEUR V1 11 03:03:20 06:19 9.49
51 27 ZANIER LAURENT MADRES V1 12 03:03:24 06:19 9.49
52 53 GUSTIN EDDY   V2 9 03:03:43 06:20 9.47
53 62 GAILLET OLIVIER   SEN H 31 03:04:56 06:23 9.41
54 59 TORRES MIRALLES FÈLIX   V1 13 03:05:13 06:23 9.39
55 88 CHRISTINE WEYRICH BATIFER A2 2 03:05:14 06:23 9.39
56 102 JENNEQUIN MARIE OTC A1 1 03:05:37 06:24 9.37
57 121 VAN RAEMDONCK ERIK   V2 10 03:07:24 06:28 9.28
58 85 BECK JEREMY   SEN H 32 03:08:18 06:30 9.24
59 73 GUIDON LUDOVIC COMMUNAUTÉ SPORTEX SEN H 33 03:08:39 06:30 9.22
60 55 OTTERMANS PIERRE   V1 14 03:09:49 06:33 9.17
61 69 DENDAL DIDIER   V2 11 03:10:43 06:35 9.12
62 75 DIERYCK PASCAL   V2 12 03:10:49 06:35 9.12
63 58 GEERTS SEBASTIEN OBJ V1 15 03:11:45 06:37 9.07
64 72 DIEUDONNE MICHEL   V2 13 03:11:57 06:37 9.06
65 91 MARCHAL KEVIN BATIFER TRAIL V1 16 03:12:34 06:38 9.04
66 124 DUPUIS LAURENT   V1 17 03:12:40 06:39 9.03
67 122 ALLEAUME CHRISTOPHE   V2 14 03:13:58 06:41 8.97
68 35 LENOIR ANDY TRAILEURS DES FAGNES V1 18 03:14:39 06:43 8.94
69 47 MORO TERRY LE BER V2 15 03:14:40 06:43 8.94
70 63 JACQMAIN RUDY   V1 19 03:14:50 06:43 8.93
71 61 CAILLET VINCENT TEAM TRAIL SINGLE µTRACK V2 16 03:15:06 06:44 8.92
72 105 DECOUX CEDRIC   SEN H 34 03:15:13 06:44 8.91
73 119 VERMEERSCH OLIVIER JCL V1 20 03:16:15 06:46 8.87
74 11 DE VITIS QUENTIN UAC SEN H 35 03:16:49 06:47 8.84
75 1 MALCOURANT KEEVIN PHACOTEAM SEN H 36 03:16:49 06:47 8.84
76 78 PICKAERT PATRICK   V1 21 03:17:08 06:48 8.83
77 68 DEWIT RAYMOND   V2 17 03:18:57 06:52 8.75
78 32 LACROIX LOGAN   SEN H 37 03:19:26 06:53 8.72
79 90 RIGAUX ARNAUD BATIFER TRAIL SEN H 38 03:19:27 06:53 8.72
80 112 MATHIEU JEAN-FRANCOIS   V1 22 03:19:40 06:53 8.71
81 123 VERBRUGGEN YVES   SEN H 39 03:19:50 06:53 8.71
82 15 DELOBBE JONATHAN JOG HERMETON SEN H 40 03:20:26 06:55 8.68
83 155 VANDENBERGHE JÉRÔME CATS BIKERS SEN H 41 03:20:29 06:55 8.68
84 109 LEROY HERVE   SEN H 42 03:21:12 06:56 8.65
85 132 LUST GAUTHIER   SEN H 43 03:21:13 06:56 8.65
86 158 JONATHAN LECHARLIER CARS BIKERS SEN H 44 03:21:46 06:57 8.62
87 115 HOLLEVOET CATHERINE TRAILEURS DÉJANTÉS A2 3 03:22:40 06:59 8.59
88 77 CAMPS NATHANIEL JOG HERMETON SEN H 45 03:23:26 07:01 8.55
89 71 D'ANGELO AMERINO ZATAC CHARLEROI V2 18 03:26:47 07:08 8.41
90 117 TRICOT SEBASTIEN ZATAC CHARLEROI V1 23 03:27:58 07:10 8.37
91 118 POTIER CEDRIC   V1 24 03:27:59 07:10 8.37
92 131 MOUCHART JEAN-CHRISTOPHE   V1 25 03:29:01 07:12 8.32
93 64 TRUANT PHILIP RUNNAISSANCE SEN H 46 03:29:16 07:13 8.31
94 108 WANSARD MARIE RCBG A1 2 03:29:30 07:13 8.31
95 107 LÉONET MAXIME RCBG V1 26 03:29:30 07:13 8.31
96 52 GREGORY LEQUIVARD SINGLE TRACK SEN H 47 03:33:21 07:21 8.16
97 83 DUPONT PHILIPPE ILEVIA V3 1 03:35:03 07:25 8.09
98 103 PLACE JOHN   V2 19 03:35:26 07:26 8.08
99 100 HUAUX JEAN-FRANCOIS NJ PHILIPPEVILLE SEN H 48 03:37:40 07:30 7.99
100 80 BERGER SEBASTIEN CLUB ATHLÉTIQUE FOURMISIEN V1 27 03:37:41 07:30 7.99
101 79 CAPELLE JEREMY   SEN H 49 03:38:17 07:32 7.97
102 173 PAQUET QUENTIN FELUY V4 1 03:43:17 07:42 7.79
103 76 BONJAN ANTOINE   SEN H 50 03:43:33 07:43 7.78
104 116 LEHANNE ERIC   V1 28 03:43:40 07:43 7.78
105 130 COLONVAL THOMAS   SEN H 51 03:45:17 07:46 7.72
106 54 LACAILLE FRANCQ JOG HERMETON V1 29 03:45:41 07:47 7.71
107 113 PARMENTIER JEAN CLAUDE JC LUINGNE V4 2 03:47:45 07:51 7.64
108 152 BACHY VÉRONIQUE ESM A2 4 03:49:39 07:55 7.58
109 160 LETE PASCAL ESM V3 2 03:49:43 07:55 7.57
110 174 LACROIX BERNARD PLAQUET MORO V4 3 03:51:02 07:58 7.53
111 126 HUBLET JULIE AS LES CURRERE A1 3 03:52:17 08:01 7.49
112 127 CHINTINNE STÉPHANIE AS LES CURRERE A2 5 03:52:17 08:01 7.49
113 129 BOURÉ PHILIPPE EAD SEN H 52 03:54:39 08:05 7.42
114 104 DENISON LOGAN FLAVION SPORT SEN H 53 04:00:39 08:18 7.23
115 74 BARON LUDOVIC MAUBEUGE MARATHON V1 30 04:01:11 08:19 7.21
116 154 MATHIEU JACQUES   V2 20 04:02:05 08:21 7.19
117 120 LELEUX CHRISTOPHE RUNAISSANCE.BE SEN H 54 04:02:26 08:22 7.18
118 82 DUPONT DAVID   SEN H 55 04:02:37 08:22 7.17
119 110 EMPAIN DANIEL THARÉS TEAM TRAIL V1 31 04:03:28 08:24 7.15
120 156 DEGAND ERIC HRC V2 21 04:10:01 08:37 6.96
121 153 DE MEESTER THIERRY JAMES V2 22 04:10:08 08:38 6.96
122 157 THIRY GEOFFREY   V1 32 04:10:47 08:39 6.94
123 171 MEURICE ISABELLE   A3 1 04:17:06 08:52 6.77
124 161 CALABRESE GAELLE CEPAL A1 4 04:23:37 09:05 6.60
125 150 LECOCQ MICHELE ART A2 6 04:23:38 09:05 6.60
126 168 GALANT ANNE TORTUES MESLINOISES A2 7 04:25:01 09:08 6.57
127 159 DUPUIS YVES RUN'HEURE V1 33 04:25:13 09:09 6.56
128 172 RAMAEKERS ISABELLE   A3 2 04:28:54 09:16 6.47
129 164 LINSTER ARNAUD STRATOS RUNNING SEN H 56 04:37:02 09:33 6.28
130 114 RENARD PASCAL JC LUINGNE V2 23 04:42:02 09:44 6.17
131 166 JONQUIN ROSE MARIE STRATOS RUNNING A1 5 04:46:45 09:53 6.07
132 165 BUTEL LOIC STRATOS RUNNING SEN H 57 04:46:45 09:53 6.07